WetterOnline ( http://www.wetteronline.de )

Wetter aktuell Deutschneudorf

Aktuelles Wetter: Zinnwald (882m)

6-stündlich | Neueste Meldungen
Ortszeit Temperatur Wetter
Mi, 23.05. 20:00 15.5° C bewölkt
Mi, 23.05. 14:00 13.4° C leichter Regen
Mi, 23.05. 8:00 14.7° C wolkenlos
Mi, 23.05. 2:00 13.3° C bewölkt
Di, 22.05. 20:00 16.8° C wolkenlos
Di, 22.05. 14:00 17.3° C fast wolkenlos
Di, 22.05. 8:00 12.0° C wolkenlos
Di, 22.05. 2:00 10.0° C wolkenlos
Ortszeit Temperatur Wetter
Mi, 23.05. 22:00 14.7° C bedeckt
Mi, 23.05. 21:50 14.7° C bedeckt
Mi, 23.05. 21:40 14.8° C bedeckt
Mi, 23.05. 21:30 14.8° C bewölkt
Mi, 23.05. 21:20 14.8° C bewölkt
Mi, 23.05. 21:10 14.9° C bewölkt
Mi, 23.05. 21:00 14.9° C bewölkt
Mi, 23.05. 20:30 15.2° C wolkig
Mi, 23.05. 20:00 15.5° C bewölkt
Mi, 23.05. 19:30 15.8° C bedeckt
Mi, 23.05. 19:00 16.0° C bedeckt
Ortszeit Relative Feuchte Sichtweite
Mi, 23.05. 20:00 86% 14 km
Mi, 23.05. 14:00 96% 11 km
Mi, 23.05. 8:00 81% 19 km
Mi, 23.05. 2:00 80% 30 km
Di, 22.05. 20:00 51% 70 km
Di, 22.05. 14:00 50% 50 km
Di, 22.05. 8:00 67% 19 km
Di, 22.05. 2:00 66% 70 km
Ortszeit Relative Feuchte Sichtweite
Mi, 23.05. 22:00 91% 13 km
Mi, 23.05. 21:50 91% -
Mi, 23.05. 21:40 91% -
Mi, 23.05. 21:30 91% 13 km
Mi, 23.05. 21:20 91% -
Mi, 23.05. 21:10 91% -
Mi, 23.05. 21:00 91% 12 km
Mi, 23.05. 20:30 90% 12 km
Mi, 23.05. 20:00 86% 14 km
Mi, 23.05. 19:30 83% 17 km
Mi, 23.05. 19:00 81% 19 km
Ortszeit Niederschlagsmenge Niederschlagsart
Mi, 23.05. 20:00 4 l/m2 in 12 Std. Regen
Mi, 23.05. 14:00 3 l/m2 in 6 Std. Regen
Mi, 23.05. 8:00 0.0 l/m2 in 12 Std. -
Mi, 23.05. 2:00 0.0 l/m2 in 6 Std. -
Di, 22.05. 20:00 0.0 l/m2 in 12 Std. -
Di, 22.05. 14:00 0.0 l/m2 in 6 Std. -
Di, 22.05. 8:00 0.0 l/m2 in 12 Std. -
Di, 22.05. 2:00 0.0 l/m2 in 6 Std. -
Ortszeit Niederschlagsmenge Niederschlagsart
Mi, 23.05. 22:00 0.1 l/m2 in 1 Std. Regen
Mi, 23.05. 21:50 keine Meldung -
Mi, 23.05. 21:40 keine Meldung -
Mi, 23.05. 21:30 0.0 l/m2 in 1 Std. -
Mi, 23.05. 21:20 keine Meldung -
Mi, 23.05. 21:10 keine Meldung -
Mi, 23.05. 21:00 0.0 l/m2 in 1 Std. -
Mi, 23.05. 20:30 0.0 l/m2 in 1 Std. -
Mi, 23.05. 20:00 0.0 l/m2 in 1 Std. Regen
Mi, 23.05. 19:30 0.0 l/m2 in 1 Std. -
Mi, 23.05. 19:00 0.0 l/m2 in 1 Std. -
Ortszeit Stärke Spitze Richtung
km/h Bft. km/h Grad Sektor
Mi, 23.05. 20:00 22 4 39 40° NO
Mi, 23.05. 14:00 15 3 43 60° NO
Mi, 23.05. 8:00 20 4 28 90° O
Mi, 23.05. 2:00 13 3 20 100° O
Di, 22.05. 20:00 9 2 30 90° O
Di, 22.05. 14:00 14 3 32 130° SO
Di, 22.05. 8:00 14 3 25 160° S
Di, 22.05. 2:00 18 3 32 160° S
Ortszeit Stärke Spitze Richtung
km/h Bft. km/h Grad Sektor
Mi, 23.05. 22:00 19 3 30 60° NO
Mi, 23.05. 21:50 19 3 - 60° NO
Mi, 23.05. 21:40 20 4 - 60° NO
Mi, 23.05. 21:30 20 4 28 60° NO
Mi, 23.05. 21:20 20 4 - 60° NO
Mi, 23.05. 21:10 20 4 - 60° NO
Mi, 23.05. 21:00 22 4 36 60° NO
Mi, 23.05. 20:30 22 4 36 50° NO
Mi, 23.05. 20:00 22 4 39 40° NO
Mi, 23.05. 19:30 22 4 33 50° NO
Mi, 23.05. 19:00 22 4 32 40° NO
Ortszeit Untergrenze Bedeckung Gattung
total tief tief mittel hoch
Mi, 23.05. 20:00 4500 m 8/8 7/8 - - -
Mi, 23.05. 14:00 540 m 8/8 - - - -
Mi, 23.05. 8:00 - 0/8 0/8 - - -
Mi, 23.05. 2:00 990 m 7/8 7/8 - - -
Di, 22.05. 20:00 - 0/8 0/8 - - -
Di, 22.05. 14:00 1350 m 1/8 1/8 - - -
Di, 22.05. 8:00 - 0/8 0/8 - - -
Di, 22.05. 2:00 - 0/8 0/8 - - -
Ortszeit Bedeckungsgrad in Achtel und Wolkenuntergrenze
Mi, 23.05. 22:00 7(780m) 8(1290m)
Mi, 23.05. 21:50 7(780m) 8(1290m)
Mi, 23.05. 21:40 6(780m) 7(1350m) 8(1500m)
Mi, 23.05. 21:30 2(1320m) 7(1500m) 8(3600m)
Mi, 23.05. 21:20 2(1320m) 7(1500m) 8(3600m)
Mi, 23.05. 21:10 6(1500m) 7(1800m) 7(2700m)
Mi, 23.05. 21:00 3(1500m) 5(2100m) 7(2400m)
Mi, 23.05. 20:30 1(390m) 6(5700m) 7(6900m)
Mi, 23.05. 20:00 4(4500m) 8(6600m) 7(6600m)
Mi, 23.05. 19:30 8(4200m)
Mi, 23.05. 19:00 4(4800m) 6(6000m) 8(6600m)
Ortszeit Stationsdruck (hPa) Tendenz (hPa in 3 Std.)
Mi, 23.05. 20:00 920 + 0,2
Mi, 23.05. 14:00 920 + 0,8
Mi, 23.05. 8:00 918 + 1,4
Mi, 23.05. 2:00 916 + 0,2
Di, 22.05. 20:00 915 + 0,3
Di, 22.05. 14:00 915 0,0
Di, 22.05. 8:00 915 + 0,3
Di, 22.05. 2:00 915 - 0,9
Ortszeit Stationsdruck (hPa) Tendenz (hPa in 3 Std.)
Mi, 23.05. 22:00 921 + 1,1
Mi, 23.05. 21:50 921 keine Meldung
Mi, 23.05. 21:40 921 keine Meldung
Mi, 23.05. 21:30 921 + 1,1
Mi, 23.05. 21:20 921 keine Meldung
Mi, 23.05. 21:10 921 keine Meldung
Mi, 23.05. 21:00 920 + 1,2
Mi, 23.05. 20:30 920 + 0,8
Mi, 23.05. 20:00 920 + 0,2
Mi, 23.05. 19:30 920 + 0,3
Mi, 23.05. 19:00 920 - 0,1
Ortszeit Schneehöhe (cm)
Mi, 23.05. 20:00 0
Mi, 23.05. 14:00 0
Mi, 23.05. 8:00 0
Mi, 23.05. 2:00 0
Di, 22.05. 20:00 0
Di, 22.05. 14:00 0
Di, 22.05. 8:00 0
Di, 22.05. 2:00 0
Ortszeit Schneehöhe (cm)
Mi, 23.05. 22:00 0
Mi, 23.05. 21:50 0
Mi, 23.05. 21:40 0
Mi, 23.05. 21:30 0
Mi, 23.05. 21:20 0
Mi, 23.05. 21:10 0
Mi, 23.05. 21:00 0
Mi, 23.05. 20:30 0
Mi, 23.05. 20:00 0
Mi, 23.05. 19:30 0
Mi, 23.05. 19:00 0
Link zu dieser Seite / Seite empfehlen

Das Wetter in ...